sensor_id;sensor_type;location;lat;lon;timestamp;P1;durP1;ratioP1;P2;durP2;ratioP2
2872;SDS011;1444;49.166;7.312;2023-04-03T00:00:40;21.60;;;8.43;;
2872;SDS011;1444;49.166;7.312;2023-04-03T00:03:07;15.00;;;8.80;;
2872;SDS011;1444;49.166;7.312;2023-04-03T00:05:34;16.10;;;8.20;;
2872;SDS011;1444;49.166;7.312;2023-04-03T00:08:01;17.13;;;6.87;;
2872;SDS011;1444;49.166;7.312;2023-04-03T00:10:30;16.80;;;9.20;;
2872;SDS011;1444;49.166;7.312;2023-04-03T00:12:57;19.37;;;8.43;;
2872;SDS011;1444;49.166;7.312;2023-04-03T00:15:24;22.53;;;9.20;;
2872;SDS011;1444;49.166;7.312;2023-04-03T00:17:51;16.60;;;8.33;;
2872;SDS011;1444;49.166;7.312;2023-04-03T00:20:17;22.40;;;11.00;;
2872;SDS011;1444;49.166;7.312;2023-04-03T00:22:44;16.17;;;7.20;;
2872;SDS011;1444;49.166;7.312;2023-04-03T00:25:11;13.90;;;7.17;;
2872;SDS011;1444;49.166;7.312;2023-04-03T00:27:39;16.30;;;8.77;;
2872;SDS011;1444;49.166;7.312;2023-04-03T00:30:07;17.70;;;6.93;;
2872;SDS011;1444;49.166;7.312;2023-04-03T00:32:36;12.17;;;5.73;;
2872;SDS011;1444;49.166;7.312;2023-04-03T00:35:03;14.47;;;7.10;;
2872;SDS011;1444;49.166;7.312;2023-04-03T00:37:30;23.60;;;9.87;;
2872;SDS011;1444;49.166;7.312;2023-04-03T00:39:57;19.00;;;8.87;;
2872;SDS011;1444;49.166;7.312;2023-04-03T00:42:24;27.30;;;11.60;;
2872;SDS011;1444;49.166;7.312;2023-04-03T00:47:55;30.23;;;9.03;;
2872;SDS011;1444;49.166;7.312;2023-04-03T00:50:24;26.90;;;11.30;;
2872;SDS011;1444;49.166;7.312;2023-04-03T00:52:51;15.77;;;8.30;;
2872;SDS011;1444;49.166;7.312;2023-04-03T00:55:19;20.83;;;7.97;;
2872;SDS011;1444;49.166;7.312;2023-04-03T00:57:46;15.23;;;8.63;;
2872;SDS011;1444;49.166;7.312;2023-04-03T01:00:14;19.13;;;6.00;;
2872;SDS011;1444;49.166;7.312;2023-04-03T01:02:44;19.93;;;7.23;;
2872;SDS011;1444;49.166;7.312;2023-04-03T01:05:12;16.03;;;7.77;;
2872;SDS011;1444;49.166;7.312;2023-04-03T01:07:42;18.63;;;8.13;;
2872;SDS011;1444;49.166;7.312;2023-04-03T01:10:10;12.80;;;6.83;;
2872;SDS011;1444;49.166;7.312;2023-04-03T01:12:40;11.73;;;6.53;;
2872;SDS011;1444;49.166;7.312;2023-04-03T01:15:10;11.33;;;6.60;;
2872;SDS011;1444;49.166;7.312;2023-04-03T01:17:39;11.50;;;6.63;;
2872;SDS011;1444;49.166;7.312;2023-04-03T01:23:19;18.27;;;8.80;;
2872;SDS011;1444;49.166;7.312;2023-04-03T01:25:52;21.00;;;9.17;;
2872;SDS011;1444;49.166;7.312;2023-04-03T01:28:22;19.00;;;10.27;;
2872;SDS011;1444;49.166;7.312;2023-04-03T01:30:51;14.20;;;7.87;;
2872;SDS011;1444;49.166;7.312;2023-04-03T01:33:26;26.03;;;11.27;;
2872;SDS011;1444;49.166;7.312;2023-04-03T01:35:52;20.63;;;10.23;;
2872;SDS011;1444;49.166;7.312;2023-04-03T01:38:19;15.77;;;6.73;;
2872;SDS011;1444;49.166;7.312;2023-04-03T01:40:46;13.43;;;7.90;;
2872;SDS011;1444;49.166;7.312;2023-04-03T01:43:13;20.63;;;8.87;;
2872;SDS011;1444;49.166;7.312;2023-04-03T01:45:42;18.40;;;8.07;;
2872;SDS011;1444;49.166;7.312;2023-04-03T01:48:09;16.10;;;8.30;;
2872;SDS011;1444;49.166;7.312;2023-04-03T01:50:37;16.47;;;8.40;;
2872;SDS011;1444;49.166;7.312;2023-04-03T01:53:04;19.53;;;7.40;;
2872;SDS011;1444;49.166;7.312;2023-04-03T01:55:30;20.03;;;8.90;;
2872;SDS011;1444;49.166;7.312;2023-04-03T01:57:57;20.10;;;8.77;;
2872;SDS011;1444;49.166;7.312;2023-04-03T02:00:24;24.00;;;8.40;;
2872;SDS011;1444;49.166;7.312;2023-04-03T02:02:51;21.03;;;9.10;;
2872;SDS011;1444;49.166;7.312;2023-04-03T02:05:18;31.80;;;12.40;;
2872;SDS011;1444;49.166;7.312;2023-04-03T02:07:46;19.53;;;7.10;;
2872;SDS011;1444;49.166;7.312;2023-04-03T02:10:13;14.63;;;7.30;;
2872;SDS011;1444;49.166;7.312;2023-04-03T02:12:40;14.97;;;7.50;;
2872;SDS011;1444;49.166;7.312;2023-04-03T02:15:07;20.77;;;7.47;;
2872;SDS011;1444;49.166;7.312;2023-04-03T02:17:34;17.40;;;8.47;;
2872;SDS011;1444;49.166;7.312;2023-04-03T02:20:01;28.50;;;10.90;;
2872;SDS011;1444;49.166;7.312;2023-04-03T02:22:28;28.93;;;11.30;;
2872;SDS011;1444;49.166;7.312;2023-04-03T02:24:56;18.67;;;8.57;;
2872;SDS011;1444;49.166;7.312;2023-04-03T02:27:23;32.30;;;12.60;;
2872;SDS011;1444;49.166;7.312;2023-04-03T02:29:49;19.33;;;7.50;;
2872;SDS011;1444;49.166;7.312;2023-04-03T02:32:16;25.20;;;11.07;;
2872;SDS011;1444;49.166;7.312;2023-04-03T02:34:43;15.73;;;7.27;;
2872;SDS011;1444;49.166;7.312;2023-04-03T02:37:10;23.70;;;7.77;;
2872;SDS011;1444;49.166;7.312;2023-04-03T02:39:37;24.73;;;9.87;;
2872;SDS011;1444;49.166;7.312;2023-04-03T02:42:05;30.57;;;12.60;;
2872;SDS011;1444;49.166;7.312;2023-04-03T02:44:32;21.53;;;8.33;;
2872;SDS011;1444;49.166;7.312;2023-04-03T02:46:58;22.17;;;10.20;;
2872;SDS011;1444;49.166;7.312;2023-04-03T02:49:25;32.03;;;12.60;;
2872;SDS011;1444;49.166;7.312;2023-04-03T02:51:52;22.97;;;8.30;;
2872;SDS011;1444;49.166;7.312;2023-04-03T02:54:18;41.57;;;14.10;;
2872;SDS011;1444;49.166;7.312;2023-04-03T02:56:45;17.07;;;8.60;;
2872;SDS011;1444;49.166;7.312;2023-04-03T02:59:13;17.60;;;6.83;;
2872;SDS011;1444;49.166;7.312;2023-04-03T03:01:40;12.73;;;6.53;;
2872;SDS011;1444;49.166;7.312;2023-04-03T03:04:07;20.23;;;8.13;;
2872;SDS011;1444;49.166;7.312;2023-04-03T03:06:34;19.00;;;7.63;;
2872;SDS011;1444;49.166;7.312;2023-04-03T03:09:00;22.67;;;9.70;;
2872;SDS011;1444;49.166;7.312;2023-04-03T03:11:28;30.03;;;11.37;;
2872;SDS011;1444;49.166;7.312;2023-04-03T03:13:55;17.13;;;6.77;;
2872;SDS011;1444;49.166;7.312;2023-04-03T03:16:24;36.73;;;12.03;;
2872;SDS011;1444;49.166;7.312;2023-04-03T03:18:50;23.80;;;9.00;;
2872;SDS011;1444;49.166;7.312;2023-04-03T03:21:17;46.13;;;12.60;;
2872;SDS011;1444;49.166;7.312;2023-04-03T03:23:44;14.50;;;6.70;;
2872;SDS011;1444;49.166;7.312;2023-04-03T03:26:10;20.80;;;7.77;;
2872;SDS011;1444;49.166;7.312;2023-04-03T03:28:38;28.93;;;7.60;;
2872;SDS011;1444;49.166;7.312;2023-04-03T03:31:05;31.23;;;9.10;;
2872;SDS011;1444;49.166;7.312;2023-04-03T03:33:34;19.03;;;6.90;;
2872;SDS011;1444;49.166;7.312;2023-04-03T03:36:01;33.00;;;8.83;;
2872;SDS011;1444;49.166;7.312;2023-04-03T03:38:28;52.80;;;11.83;;
2872;SDS011;1444;49.166;7.312;2023-04-03T03:40:55;38.13;;;9.80;;
2872;SDS011;1444;49.166;7.312;2023-04-03T03:43:22;38.20;;;11.53;;
2872;SDS011;1444;49.166;7.312;2023-04-03T03:45:50;32.03;;;10.40;;
2872;SDS011;1444;49.166;7.312;2023-04-03T03:48:17;19.93;;;7.60;;
2872;SDS011;1444;49.166;7.312;2023-04-03T03:50:45;28.33;;;8.37;;
2872;SDS011;1444;49.166;7.312;2023-04-03T03:53:12;29.67;;;8.23;;
2872;SDS011;1444;49.166;7.312;2023-04-03T03:55:39;23.83;;;8.57;;
2872;SDS011;1444;49.166;7.312;2023-04-03T03:58:06;21.83;;;6.80;;
2872;SDS011;1444;49.166;7.312;2023-04-03T04:00:33;21.40;;;7.63;;
2872;SDS011;1444;49.166;7.312;2023-04-03T04:03:00;45.17;;;10.97;;
2872;SDS011;1444;49.166;7.312;2023-04-03T04:05:27;39.00;;;11.33;;
2872;SDS011;1444;49.166;7.312;2023-04-03T04:07:55;42.30;;;10.30;;
2872;SDS011;1444;49.166;7.312;2023-04-03T04:10:22;71.47;;;13.40;;
2872;SDS011;1444;49.166;7.312;2023-04-03T04:12:49;47.00;;;11.40;;
2872;SDS011;1444;49.166;7.312;2023-04-03T04:15:16;64.73;;;13.20;;
2872;SDS011;1444;49.166;7.312;2023-04-03T04:17:43;28.07;;;7.10;;
2872;SDS011;1444;49.166;7.312;2023-04-03T04:20:10;21.03;;;8.03;;
2872;SDS011;1444;49.166;7.312;2023-04-03T04:22:37;26.40;;;8.47;;
2872;SDS011;1444;49.166;7.312;2023-04-03T04:25:06;33.40;;;10.23;;
2872;SDS011;1444;49.166;7.312;2023-04-03T04:27:33;20.03;;;7.80;;
2872;SDS011;1444;49.166;7.312;2023-04-03T04:29:59;20.53;;;8.40;;
2872;SDS011;1444;49.166;7.312;2023-04-03T04:32:27;29.13;;;10.67;;
2872;SDS011;1444;49.166;7.312;2023-04-03T04:34:54;20.67;;;9.03;;
2872;SDS011;1444;49.166;7.312;2023-04-03T04:37:21;28.63;;;11.10;;
2872;SDS011;1444;49.166;7.312;2023-04-03T04:39:47;15.03;;;7.30;;
2872;SDS011;1444;49.166;7.312;2023-04-03T04:42:16;23.23;;;10.07;;
2872;SDS011;1444;49.166;7.312;2023-04-03T04:44:42;20.03;;;8.17;;
2872;SDS011;1444;49.166;7.312;2023-04-03T04:47:09;15.17;;;7.00;;
2872;SDS011;1444;49.166;7.312;2023-04-03T04:49:36;20.93;;;7.83;;
2872;SDS011;1444;49.166;7.312;2023-04-03T04:52:03;21.30;;;9.70;;
2872;SDS011;1444;49.166;7.312;2023-04-03T04:54:30;24.63;;;9.67;;
2872;SDS011;1444;49.166;7.312;2023-04-03T04:56:57;25.57;;;9.77;;
2872;SDS011;1444;49.166;7.312;2023-04-03T04:59:25;34.97;;;12.60;;
2872;SDS011;1444;49.166;7.312;2023-04-03T05:01:52;18.47;;;9.70;;
2872;SDS011;1444;49.166;7.312;2023-04-03T05:04:18;27.50;;;12.37;;
2872;SDS011;1444;49.166;7.312;2023-04-03T05:06:45;20.20;;;10.40;;
2872;SDS011;1444;49.166;7.312;2023-04-03T05:09:12;23.27;;;11.37;;
2872;SDS011;1444;49.166;7.312;2023-04-03T05:11:39;31.13;;;11.57;;
2872;SDS011;1444;49.166;7.312;2023-04-03T05:14:06;21.87;;;9.80;;
2872;SDS011;1444;49.166;7.312;2023-04-03T05:16:34;21.27;;;9.13;;
2872;SDS011;1444;49.166;7.312;2023-04-03T05:19:01;21.33;;;9.83;;
2872;SDS011;1444;49.166;7.312;2023-04-03T05:21:28;25.93;;;12.17;;
2872;SDS011;1444;49.166;7.312;2023-04-03T05:23:57;19.57;;;8.50;;
2872;SDS011;1444;49.166;7.312;2023-04-03T05:26:24;27.03;;;11.73;;
2872;SDS011;1444;49.166;7.312;2023-04-03T05:28:51;16.37;;;8.00;;
2872;SDS011;1444;49.166;7.312;2023-04-03T05:31:18;22.73;;;7.57;;
2872;SDS011;1444;49.166;7.312;2023-04-03T05:33:46;15.67;;;8.43;;
2872;SDS011;1444;49.166;7.312;2023-04-03T05:36:13;20.60;;;8.80;;
2872;SDS011;1444;49.166;7.312;2023-04-03T05:38:40;14.57;;;7.80;;
2872;SDS011;1444;49.166;7.312;2023-04-03T05:41:07;17.20;;;8.43;;
2872;SDS011;1444;49.166;7.312;2023-04-03T05:43:34;19.30;;;7.53;;
2872;SDS011;1444;49.166;7.312;2023-04-03T05:46:02;28.03;;;9.40;;
2872;SDS011;1444;49.166;7.312;2023-04-03T05:48:29;23.80;;;10.33;;
2872;SDS011;1444;49.166;7.312;2023-04-03T05:50:57;25.20;;;8.57;;
2872;SDS011;1444;49.166;7.312;2023-04-03T05:53:25;28.23;;;11.50;;
2872;SDS011;1444;49.166;7.312;2023-04-03T05:55:54;18.00;;;8.77;;
2872;SDS011;1444;49.166;7.312;2023-04-03T05:58:20;34.37;;;12.77;;
2872;SDS011;1444;49.166;7.312;2023-04-03T06:00:47;16.20;;;7.80;;
2872;SDS011;1444;49.166;7.312;2023-04-03T06:03:14;16.53;;;7.13;;
2872;SDS011;1444;49.166;7.312;2023-04-03T06:05:41;20.13;;;8.63;;
2872;SDS011;1444;49.166;7.312;2023-04-03T06:08:09;15.57;;;7.50;;
2872;SDS011;1444;49.166;7.312;2023-04-03T06:10:37;19.17;;;7.30;;
2872;SDS011;1444;49.166;7.312;2023-04-03T06:13:04;17.20;;;7.40;;
2872;SDS011;1444;49.166;7.312;2023-04-03T06:15:32;25.20;;;6.63;;
2872;SDS011;1444;49.166;7.312;2023-04-03T06:17:58;18.77;;;8.90;;
2872;SDS011;1444;49.166;7.312;2023-04-03T06:20:26;23.57;;;10.23;;
2872;SDS011;1444;49.166;7.312;2023-04-03T06:22:52;15.43;;;6.83;;
2872;SDS011;1444;49.166;7.312;2023-04-03T06:25:20;26.27;;;11.03;;
2872;SDS011;1444;49.166;7.312;2023-04-03T06:27:47;24.50;;;8.40;;
2872;SDS011;1444;49.166;7.312;2023-04-03T06:30:14;16.33;;;7.80;;
2872;SDS011;1444;49.166;7.312;2023-04-03T06:32:41;12.77;;;6.90;;
2872;SDS011;1444;49.166;7.312;2023-04-03T06:35:08;10.80;;;6.47;;
2872;SDS011;1444;49.166;7.312;2023-04-03T06:37:35;9.90;;;4.10;;
2872;SDS011;1444;49.166;7.312;2023-04-03T06:40:02;6.37;;;5.00;;
2872;SDS011;1444;49.166;7.312;2023-04-03T06:42:31;13.53;;;6.73;;
2872;SDS011;1444;49.166;7.312;2023-04-03T06:44:58;11.03;;;6.07;;
2872;SDS011;1444;49.166;7.312;2023-04-03T06:47:25;16.10;;;8.80;;
2872;SDS011;1444;49.166;7.312;2023-04-03T06:49:52;8.07;;;6.20;;
2872;SDS011;1444;49.166;7.312;2023-04-03T06:52:18;16.37;;;8.23;;
2872;SDS011;1444;49.166;7.312;2023-04-03T06:54:45;7.43;;;5.53;;
2872;SDS011;1444;49.166;7.312;2023-04-03T06:57:12;7.17;;;5.00;;
2872;SDS011;1444;49.166;7.312;2023-04-03T06:59:41;9.30;;;4.23;;
2872;SDS011;1444;49.166;7.312;2023-04-03T07:02:09;4.97;;;4.07;;
2872;SDS011;1444;49.166;7.312;2023-04-03T07:04:37;11.40;;;6.17;;
2872;SDS011;1444;49.166;7.312;2023-04-03T07:07:04;13.03;;;5.60;;
2872;SDS011;1444;49.166;7.312;2023-04-03T07:09:30;7.83;;;5.80;;
2872;SDS011;1444;49.166;7.312;2023-04-03T07:11:57;7.43;;;6.40;;
2872;SDS011;1444;49.166;7.312;2023-04-03T07:14:24;9.63;;;4.93;;
2872;SDS011;1444;49.166;7.312;2023-04-03T07:16:52;7.77;;;5.60;;
2872;SDS011;1444;49.166;7.312;2023-04-03T07:19:19;15.10;;;9.17;;
2872;SDS011;1444;49.166;7.312;2023-04-03T07:21:46;9.40;;;5.33;;
2872;SDS011;1444;49.166;7.312;2023-04-03T07:24:13;6.27;;;4.57;;
2872;SDS011;1444;49.166;7.312;2023-04-03T07:26:39;8.00;;;5.10;;
2872;SDS011;1444;49.166;7.312;2023-04-03T07:29:06;13.77;;;6.17;;
2872;SDS011;1444;49.166;7.312;2023-04-03T07:31:34;14.43;;;7.90;;
2872;SDS011;1444;49.166;7.312;2023-04-03T07:34:02;11.20;;;6.00;;
2872;SDS011;1444;49.166;7.312;2023-04-03T07:36:29;13.83;;;6.27;;
2872;SDS011;1444;49.166;7.312;2023-04-03T07:38:58;14.90;;;7.57;;
2872;SDS011;1444;49.166;7.312;2023-04-03T07:41:25;31.60;;;12.83;;
2872;SDS011;1444;49.166;7.312;2023-04-03T07:43:51;20.90;;;7.60;;
2872;SDS011;1444;49.166;7.312;2023-04-03T07:46:18;24.10;;;8.43;;
2872;SDS011;1444;49.166;7.312;2023-04-03T07:48:45;21.27;;;7.87;;
2872;SDS011;1444;49.166;7.312;2023-04-03T07:51:14;18.40;;;6.97;;
2872;SDS011;1444;49.166;7.312;2023-04-03T07:53:41;12.47;;;5.63;;
2872;SDS011;1444;49.166;7.312;2023-04-03T07:56:07;15.97;;;6.80;;
2872;SDS011;1444;49.166;7.312;2023-04-03T07:58:34;13.30;;;6.67;;
2872;SDS011;1444;49.166;7.312;2023-04-03T08:01:02;14.67;;;6.80;;
2872;SDS011;1444;49.166;7.312;2023-04-03T08:03:29;23.90;;;8.20;;
2872;SDS011;1444;49.166;7.312;2023-04-03T08:06:00;25.30;;;8.23;;
2872;SDS011;1444;49.166;7.312;2023-04-03T08:08:30;22.37;;;9.00;;
2872;SDS011;1444;49.166;7.312;2023-04-03T08:10:57;19.40;;;6.83;;
2872;SDS011;1444;49.166;7.312;2023-04-03T08:13:26;33.63;;;9.70;;
2872;SDS011;1444;49.166;7.312;2023-04-03T08:15:54;30.67;;;8.70;;
2872;SDS011;1444;49.166;7.312;2023-04-03T08:18:22;25.53;;;9.30;;
2872;SDS011;1444;49.166;7.312;2023-04-03T08:20:50;21.10;;;8.27;;
2872;SDS011;1444;49.166;7.312;2023-04-03T08:23:17;37.20;;;10.93;;
2872;SDS011;1444;49.166;7.312;2023-04-03T08:25:46;21.20;;;6.57;;
2872;SDS011;1444;49.166;7.312;2023-04-03T08:28:13;18.87;;;6.70;;
2872;SDS011;1444;49.166;7.312;2023-04-03T08:30:40;21.60;;;7.43;;
2872;SDS011;1444;49.166;7.312;2023-04-03T08:33:07;25.50;;;7.43;;
2872;SDS011;1444;49.166;7.312;2023-04-03T08:35:37;20.53;;;7.53;;
2872;SDS011;1444;49.166;7.312;2023-04-03T08:38:05;20.07;;;7.83;;
2872;SDS011;1444;49.166;7.312;2023-04-03T08:40:32;14.23;;;5.60;;
2872;SDS011;1444;49.166;7.312;2023-04-03T08:43:03;20.77;;;8.20;;
2872;SDS011;1444;49.166;7.312;2023-04-03T08:45:42;18.40;;;6.63;;
2872;SDS011;1444;49.166;7.312;2023-04-03T08:48:12;16.07;;;6.43;;
2872;SDS011;1444;49.166;7.312;2023-04-03T08:50:42;14.00;;;6.47;;
2872;SDS011;1444;49.166;7.312;2023-04-03T08:53:14;17.63;;;7.27;;
2872;SDS011;1444;49.166;7.312;2023-04-03T08:55:43;16.33;;;6.10;;
2872;SDS011;1444;49.166;7.312;2023-04-03T08:58:13;12.17;;;5.60;;
2872;SDS011;1444;49.166;7.312;2023-04-03T09:00:44;15.67;;;6.43;;
2872;SDS011;1444;49.166;7.312;2023-04-03T09:03:14;16.03;;;6.77;;
2872;SDS011;1444;49.166;7.312;2023-04-03T09:05:45;13.00;;;4.80;;
2872;SDS011;1444;49.166;7.312;2023-04-03T09:08:18;13.10;;;6.70;;
2872;SDS011;1444;49.166;7.312;2023-04-03T09:10:51;27.27;;;6.13;;
2872;SDS011;1444;49.166;7.312;2023-04-03T09:13:26;9.97;;;6.90;;
2872;SDS011;1444;49.166;7.312;2023-04-03T09:15:59;6.13;;;4.67;;
2872;SDS011;1444;49.166;7.312;2023-04-03T09:18:28;7.40;;;5.63;;
2872;SDS011;1444;49.166;7.312;2023-04-03T09:21:01;9.17;;;5.90;;
2872;SDS011;1444;49.166;7.312;2023-04-03T09:23:35;6.80;;;3.23;;
2872;SDS011;1444;49.166;7.312;2023-04-03T09:26:09;8.10;;;4.70;;
2872;SDS011;1444;49.166;7.312;2023-04-03T09:28:41;7.23;;;4.23;;
2872;SDS011;1444;49.166;7.312;2023-04-03T09:31:13;6.63;;;4.00;;
2872;SDS011;1444;49.166;7.312;2023-04-03T09:33:45;9.87;;;5.83;;
2872;SDS011;1444;49.166;7.312;2023-04-03T09:36:12;13.37;;;4.70;;
2872;SDS011;1444;49.166;7.312;2023-04-03T09:38:39;7.97;;;4.77;;
2872;SDS011;1444;49.166;7.312;2023-04-03T09:41:12;5.67;;;5.07;;
2872;SDS011;1444;49.166;7.312;2023-04-03T09:43:51;7.83;;;4.80;;
2872;SDS011;1444;49.166;7.312;2023-04-03T09:46:29;13.83;;;8.57;;
2872;SDS011;1444;49.166;7.312;2023-04-03T09:49:01;11.67;;;5.77;;
2872;SDS011;1444;49.166;7.312;2023-04-03T09:51:30;9.33;;;7.07;;
2872;SDS011;1444;49.166;7.312;2023-04-03T09:53:57;11.47;;;5.23;;
2872;SDS011;1444;49.166;7.312;2023-04-03T09:56:25;8.43;;;6.33;;
2872;SDS011;1444;49.166;7.312;2023-04-03T09:59:07;6.63;;;5.10;;
2872;SDS011;1444;49.166;7.312;2023-04-03T10:01:41;4.20;;;3.60;;
2872;SDS011;1444;49.166;7.312;2023-04-03T10:04:09;6.30;;;4.50;;
2872;SDS011;1444;49.166;7.312;2023-04-03T10:06:38;7.27;;;4.10;;
2872;SDS011;1444;49.166;7.312;2023-04-03T10:09:15;3.93;;;3.13;;
2872;SDS011;1444;49.166;7.312;2023-04-03T10:11:57;15.73;;;5.57;;
2872;SDS011;1444;49.166;7.312;2023-04-03T10:14:32;17.23;;;5.60;;
2872;SDS011;1444;49.166;7.312;2023-04-03T10:17:08;14.80;;;4.23;;
2872;SDS011;1444;49.166;7.312;2023-04-03T10:19:43;4.83;;;4.33;;
2872;SDS011;1444;49.166;7.312;2023-04-03T10:22:18;6.20;;;4.80;;
2872;SDS011;1444;49.166;7.312;2023-04-03T10:24:54;5.87;;;4.07;;
2872;SDS011;1444;49.166;7.312;2023-04-03T10:27:34;12.03;;;7.10;;
2872;SDS011;1444;49.166;7.312;2023-04-03T10:30:11;6.47;;;4.60;;
2872;SDS011;1444;49.166;7.312;2023-04-03T10:32:50;7.80;;;3.17;;
2872;SDS011;1444;49.166;7.312;2023-04-03T10:35:26;14.20;;;8.73;;
2872;SDS011;1444;49.166;7.312;2023-04-03T10:38:04;12.10;;;5.13;;
2872;SDS011;1444;49.166;7.312;2023-04-03T10:40:39;8.80;;;5.67;;
2872;SDS011;1444;49.166;7.312;2023-04-03T10:43:15;5.80;;;3.77;;
2872;SDS011;1444;49.166;7.312;2023-04-03T10:45:51;12.67;;;6.70;;
2872;SDS011;1444;49.166;7.312;2023-04-03T10:48:30;25.57;;;8.33;;
2872;SDS011;1444;49.166;7.312;2023-04-03T10:51:06;7.60;;;4.20;;
2872;SDS011;1444;49.166;7.312;2023-04-03T10:53:43;22.93;;;5.70;;
2872;SDS011;1444;49.166;7.312;2023-04-03T10:56:15;12.63;;;6.37;;
2872;SDS011;1444;49.166;7.312;2023-04-03T10:58:48;11.67;;;6.23;;
2872;SDS011;1444;49.166;7.312;2023-04-03T11:01:22;17.67;;;8.80;;
2872;SDS011;1444;49.166;7.312;2023-04-03T11:03:54;10.40;;;5.97;;
2872;SDS011;1444;49.166;7.312;2023-04-03T11:06:24;16.90;;;6.40;;
2872;SDS011;1444;49.166;7.312;2023-04-03T11:08:55;15.67;;;7.53;;
2872;SDS011;1444;49.166;7.312;2023-04-03T11:11:27;27.70;;;10.10;;
2872;SDS011;1444;49.166;7.312;2023-04-03T11:13:58;16.50;;;7.83;;
2872;SDS011;1444;49.166;7.312;2023-04-03T11:16:31;20.27;;;8.80;;
2872;SDS011;1444;49.166;7.312;2023-04-03T11:19:04;18.70;;;8.60;;
2872;SDS011;1444;49.166;7.312;2023-04-03T11:21:42;9.50;;;4.90;;
2872;SDS011;1444;49.166;7.312;2023-04-03T11:24:15;15.83;;;5.67;;
2872;SDS011;1444;49.166;7.312;2023-04-03T11:26:47;9.43;;;5.03;;
2872;SDS011;1444;49.166;7.312;2023-04-03T11:29:18;21.83;;;9.07;;
2872;SDS011;1444;49.166;7.312;2023-04-03T11:31:58;17.50;;;7.47;;
2872;SDS011;1444;49.166;7.312;2023-04-03T11:34:36;18.13;;;6.37;;
2872;SDS011;1444;49.166;7.312;2023-04-03T11:37:06;8.90;;;5.10;;
2872;SDS011;1444;49.166;7.312;2023-04-03T11:39:40;11.60;;;6.00;;
2872;SDS011;1444;49.166;7.312;2023-04-03T11:42:17;18.57;;;8.60;;
2872;SDS011;1444;49.166;7.312;2023-04-03T11:47:44;14.63;;;6.80;;
2872;SDS011;1444;49.166;7.312;2023-04-03T11:53:27;20.37;;;7.07;;
2872;SDS011;1444;49.166;7.312;2023-04-03T11:55:57;15.33;;;7.13;;
2872;SDS011;1444;49.166;7.312;2023-04-03T11:58:26;22.83;;;9.70;;
2872;SDS011;1444;49.166;7.312;2023-04-03T12:00:57;9.60;;;5.07;;
2872;SDS011;1444;49.166;7.312;2023-04-03T12:03:31;25.00;;;11.50;;
2872;SDS011;1444;49.166;7.312;2023-04-03T12:09:00;11.63;;;5.57;;
2872;SDS011;1444;49.166;7.312;2023-04-03T12:11:28;23.67;;;9.30;;
2872;SDS011;1444;49.166;7.312;2023-04-03T12:14:03;14.40;;;6.23;;
2872;SDS011;1444;49.166;7.312;2023-04-03T12:16:42;35.03;;;7.80;;
2872;SDS011;1444;49.166;7.312;2023-04-03T12:19:32;8.30;;;4.97;;
2872;SDS011;1444;49.166;7.312;2023-04-03T12:22:10;13.90;;;6.30;;
2872;SDS011;1444;49.166;7.312;2023-04-03T12:24:42;8.13;;;6.40;;
2872;SDS011;1444;49.166;7.312;2023-04-03T12:27:23;4.80;;;4.30;;
2872;SDS011;1444;49.166;7.312;2023-04-03T12:30:03;5.90;;;4.30;;
2872;SDS011;1444;49.166;7.312;2023-04-03T12:32:46;8.03;;;3.97;;
2872;SDS011;1444;49.166;7.312;2023-04-03T12:35:23;10.37;;;6.53;;
2872;SDS011;1444;49.166;7.312;2023-04-03T12:38:13;5.80;;;4.47;;
2872;SDS011;1444;49.166;7.312;2023-04-03T12:46:51;7.10;;;4.90;;
2872;SDS011;1444;49.166;7.312;2023-04-03T12:49:30;13.43;;;7.07;;
2872;SDS011;1444;49.166;7.312;2023-04-03T12:52:03;10.80;;;6.90;;
2872;SDS011;1444;49.166;7.312;2023-04-03T12:54:42;6.23;;;4.73;;
2872;SDS011;1444;49.166;7.312;2023-04-03T12:57:20;6.53;;;4.07;;
2872;SDS011;1444;49.166;7.312;2023-04-03T12:59:47;8.67;;;5.03;;
2872;SDS011;1444;49.166;7.312;2023-04-03T13:02:17;10.37;;;6.00;;
2872;SDS011;1444;49.166;7.312;2023-04-03T13:04:48;5.03;;;4.50;;
2872;SDS011;1444;49.166;7.312;2023-04-03T13:07:20;10.93;;;5.47;;
2872;SDS011;1444;49.166;7.312;2023-04-03T13:10:03;6.60;;;5.13;;
2872;SDS011;1444;49.166;7.312;2023-04-03T13:12:45;7.27;;;4.97;;
2872;SDS011;1444;49.166;7.312;2023-04-03T13:15:14;5.10;;;3.83;;
2872;SDS011;1444;49.166;7.312;2023-04-03T13:17:42;9.97;;;4.80;;
2872;SDS011;1444;49.166;7.312;2023-04-03T13:20:11;6.03;;;4.90;;
2872;SDS011;1444;49.166;7.312;2023-04-03T13:22:47;4.20;;;3.50;;
2872;SDS011;1444;49.166;7.312;2023-04-03T13:25:16;6.80;;;5.17;;
2872;SDS011;1444;49.166;7.312;2023-04-03T13:27:46;11.03;;;5.30;;
2872;SDS011;1444;49.166;7.312;2023-04-03T13:30:19;9.73;;;4.63;;
2872;SDS011;1444;49.166;7.312;2023-04-03T13:32:49;7.43;;;5.70;;
2872;SDS011;1444;49.166;7.312;2023-04-03T13:35:24;9.17;;;6.03;;
2872;SDS011;1444;49.166;7.312;2023-04-03T13:37:57;7.50;;;5.53;;
2872;SDS011;1444;49.166;7.312;2023-04-03T13:40:25;12.23;;;7.83;;
2872;SDS011;1444;49.166;7.312;2023-04-03T13:43:00;11.13;;;5.73;;
2872;SDS011;1444;49.166;7.312;2023-04-03T13:45:28;13.87;;;8.93;;
2872;SDS011;1444;49.166;7.312;2023-04-03T13:48:07;7.23;;;4.90;;
2872;SDS011;1444;49.166;7.312;2023-04-03T13:50:50;9.00;;;6.83;;
2872;SDS011;1444;49.166;7.312;2023-04-03T13:53:20;13.33;;;4.70;;
2872;SDS011;1444;49.166;7.312;2023-04-03T13:58:51;6.93;;;4.20;;
2872;SDS011;1444;49.166;7.312;2023-04-03T14:01:21;6.77;;;4.40;;
2872;SDS011;1444;49.166;7.312;2023-04-03T14:03:52;9.53;;;3.43;;
2872;SDS011;1444;49.166;7.312;2023-04-03T14:06:21;7.80;;;4.47;;
2872;SDS011;1444;49.166;7.312;2023-04-03T14:08:50;8.00;;;5.23;;
2872;SDS011;1444;49.166;7.312;2023-04-03T14:11:18;11.30;;;5.07;;
2872;SDS011;1444;49.166;7.312;2023-04-03T14:13:48;8.80;;;5.40;;
2872;SDS011;1444;49.166;7.312;2023-04-03T14:16:17;6.90;;;4.63;;
2872;SDS011;1444;49.166;7.312;2023-04-03T14:18:45;10.17;;;6.23;;
2872;SDS011;1444;49.166;7.312;2023-04-03T14:21:13;6.93;;;5.10;;
2872;SDS011;1444;49.166;7.312;2023-04-03T14:23:40;9.17;;;5.50;;
2872;SDS011;1444;49.166;7.312;2023-04-03T14:26:10;6.57;;;5.07;;
2872;SDS011;1444;49.166;7.312;2023-04-03T14:28:38;16.13;;;6.23;;
2872;SDS011;1444;49.166;7.312;2023-04-03T14:31:06;21.63;;;5.00;;
2872;SDS011;1444;49.166;7.312;2023-04-03T14:33:33;21.87;;;5.60;;
2872;SDS011;1444;49.166;7.312;2023-04-03T14:36:00;8.43;;;6.37;;
2872;SDS011;1444;49.166;7.312;2023-04-03T14:38:28;10.83;;;5.43;;
2872;SDS011;1444;49.166;7.312;2023-04-03T14:40:56;9.50;;;5.67;;
2872;SDS011;1444;49.166;7.312;2023-04-03T14:43:25;8.87;;;4.60;;
2872;SDS011;1444;49.166;7.312;2023-04-03T14:45:52;9.80;;;4.60;;
2872;SDS011;1444;49.166;7.312;2023-04-03T14:48:20;8.57;;;6.17;;
2872;SDS011;1444;49.166;7.312;2023-04-03T14:50:49;8.60;;;6.13;;
2872;SDS011;1444;49.166;7.312;2023-04-03T14:53:17;9.87;;;3.23;;
2872;SDS011;1444;49.166;7.312;2023-04-03T14:55:47;8.47;;;6.03;;
2872;SDS011;1444;49.166;7.312;2023-04-03T14:58:15;8.40;;;5.30;;
2872;SDS011;1444;49.166;7.312;2023-04-03T15:00:45;9.00;;;5.40;;
2872;SDS011;1444;49.166;7.312;2023-04-03T15:03:13;8.30;;;5.90;;
2872;SDS011;1444;49.166;7.312;2023-04-03T15:05:41;13.30;;;5.33;;
2872;SDS011;1444;49.166;7.312;2023-04-03T15:08:13;10.83;;;6.20;;
2872;SDS011;1444;49.166;7.312;2023-04-03T15:10:45;12.63;;;6.03;;
2872;SDS011;1444;49.166;7.312;2023-04-03T15:13:12;15.10;;;4.90;;
2872;SDS011;1444;49.166;7.312;2023-04-03T15:15:39;6.90;;;4.70;;
2872;SDS011;1444;49.166;7.312;2023-04-03T15:18:09;13.73;;;7.60;;
2872;SDS011;1444;49.166;7.312;2023-04-03T15:20:39;6.70;;;4.47;;
2872;SDS011;1444;49.166;7.312;2023-04-03T15:23:05;14.90;;;6.83;;
2872;SDS011;1444;49.166;7.312;2023-04-03T15:25:32;11.77;;;7.57;;
2872;SDS011;1444;49.166;7.312;2023-04-03T15:27:59;10.83;;;6.50;;
2872;SDS011;1444;49.166;7.312;2023-04-03T15:30:26;6.30;;;4.20;;
2872;SDS011;1444;49.166;7.312;2023-04-03T15:32:53;10.87;;;6.90;;
2872;SDS011;1444;49.166;7.312;2023-04-03T15:35:21;11.70;;;5.30;;
2872;SDS011;1444;49.166;7.312;2023-04-03T15:37:48;9.60;;;5.37;;
2872;SDS011;1444;49.166;7.312;2023-04-03T15:40:16;8.23;;;4.97;;